Aérodrome :
LOGIN :

S'inscrire | Disclaimer

   EN    FR    IT 

 










Légende :    VFR   VFR Marginal   IFR   IFR Intensif   IFR Très Intensif
Visi : 
Plafond : 
>= 8 km
>= 3000ft
5 à 8 km
1000 à 3000 ft
1500m à 5 km
500 à 1000 ft
800 à 1500m
200 à 500 ft
< 800m
< 200 ft
Symboles :   Orages  Brouillard  Fortes neiges  Fortes précipitations  Vent > 20 kt
SIGMETs :   Divers  Orages  Givrage  Turbulence  Onde Orograph.  Cendres Volcan.







- Altitude de l'aérodrome : 20 ft


EBFN - Koksijde

DERNIER METAR :
  • 171008Z VRB02KT 8000 FEW005 BKN100 15/14 Q1020 BLU BLU

METARs EXPIRÉS :
  • 170953Z VRB01KT 6000 FEW005 BKN100 14/13 Q1020 WHT WHT BECMG BLU
  • 170936Z VRB01KT 4000 BR FEW002 BKN100 13/13 Q1020 GRN GRN BECMG WHT
  • 170923Z VRB02KT 2800 BR FEW002 SCT030 BKN100 13/13 Q1020 YLO YLO BECMG GRN
  • 170855Z 22004KT 1200 BR OVC002 12/12 Q1020 AMB AMB BECMG YLO
  • 170839Z 23004KT 0800 FG OVC002 12/11 Q1020 AMB AMB BECMG YLO
  • 170825Z 24004KT 0500 FG OVC002 11/11 Q1020 RED RED BECMG AMB
  • 170755Z 24004KT 0200 FG OVC002 11/10 Q1019 RED RED BECMG AMB
  • 170733Z 24005KT 0400 FG BKN001 11/10 Q1019 RED RED BECMG AMB
  • 170723Z 24004KT 0800 BR FEW001 SCT010 BKN032 11/10 Q1019 AMB AMB BECMG YLO

TAF TAF EBFN
Valide du 17 à 10h jusqu'au 17 à 19h UTC


170841Z 1710/1719 24005KT 7000 FEW006 SCT023
PROB30
TEMPO 1710/1719 3000 BR SCT004 BKN006
TEMPO 1710/1711 4000 BR FEW005 SCT020
BECMG 1710/1712 8000 SCT025
TEMPO 1711/1716 7000 SCT024
BECMG 1714/1716 35008KT 9999 BKN030
Pas de NOTAMs connus pour ce terrain.



MET'MAP, la Météo Aéronautique d'un coup d'oeil ! - Copyright ORBIFLY Décembre 2007 - Disclaimer

ORBIFLY MET'MAP TEAM :

Programmation & Développement : Alexandra Zaïnal
Conception & Développement : Baudouin d'Aumeries
Co-Programmation & Développement : Marc-Olivier Méhu
Soutien technique & logistique : Manuel Goepfert

Contact : metmap@orbifly.com




SOURCES & CREDITS :

   NOAA